Time;durP1;ratioP1;P1;durP2;ratioP2;P2;SDS_P1;SDS_P2;PMS_P1;PMS_P2;Temp;Humidity;BMP_temperature;BMP_pressure;BME280_temperature;BME280_humidity;BME280_pressure;Samples;Min_cycle;Max_cycle;Signal;HPM_P1;HPM_P2
2023/06/19 00:01:42;;;;;;;12.87;11.97;;;;;;;18.66;72.92;92925.78;5102902;28;20257;-77
2023/06/19 00:04:07;;;;;;;12.63;11.73;;;;;;;18.97;74.27;92964.00;5075840;28;20182;-77
2023/06/19 00:06:33;;;;;;;12.30;11.37;;;;;;;18.79;73.37;92919.47;5070428;28;20171;-78
2023/06/19 00:08:58;;;;;;;13.20;12.20;;;;;;;19.00;73.85;92949.38;5069871;28;20213;-77
2023/06/19 00:11:23;;;;;;;12.43;11.67;;;;;;;18.79;74.25;92924.75;5068335;28;20247;-78
2023/06/19 00:13:49;;;;;;;11.97;11.23;;;;;;;18.95;74.64;92941.63;5069904;28;20232;-78
2023/06/19 00:16:15;;;;;;;13.13;12.17;;;;;;;18.55;74.10;92911.38;5069793;28;20253;-77
2023/06/19 00:18:40;;;;;;;12.13;11.23;;;;;;;19.02;74.19;92955.09;5069981;28;20194;-77
2023/06/19 00:21:09;;;;;;;12.97;12.07;;;;;;;18.87;74.49;92937.16;5069635;28;20221;-77
2023/06/19 00:23:35;;;;;;;11.90;11.20;;;;;;;18.98;74.26;92959.50;5069737;28;20204;-78
2023/06/19 00:26:03;;;;;;;11.10;10.40;;;;;;;19.00;73.85;92960.72;5068324;28;20215;-77
2023/06/19 00:28:29;;;;;;;11.57;10.87;;;;;;;18.44;73.13;92858.09;5069734;28;20186;-78
2023/06/19 00:30:55;;;;;;;11.57;10.87;;;;;;;18.98;73.50;92954.22;5069080;28;20243;-77
2023/06/19 00:33:21;;;;;;;13.13;11.97;;;;;;;19.21;73.40;92958.09;5069137;28;21244;-77
2023/06/19 00:35:48;;;;;;;11.97;11.27;;;;;;;19.13;73.73;92946.47;5069387;28;20225;-77
2023/06/19 00:38:13;;;;;;;12.93;12.07;;;;;;;18.97;74.42;92936.78;5070255;28;20191;-78
2023/06/19 00:40:39;;;;;;;11.43;10.63;;;;;;;18.86;74.34;92946.19;5069643;28;20284;-78
2023/06/19 00:43:06;;;;;;;11.77;10.97;;;;;;;18.87;74.47;92947.75;5069362;28;20178;-78
2023/06/19 00:45:31;;;;;;;12.80;11.90;;;;;;;19.00;74.56;92949.38;5068346;28;20207;-77
2023/06/19 00:47:58;;;;;;;13.47;12.37;;;;;;;18.63;75.45;92939.63;5069457;28;20249;-77
2023/06/19 00:50:24;;;;;;;12.30;11.40;;;;;;;18.83;75.24;92938.91;5069067;28;20224;-79
2023/06/19 00:52:50;;;;;;;13.03;12.13;;;;;;;18.81;74.54;92935.78;5068101;28;20224;-77
2023/06/19 00:55:16;;;;;;;12.27;11.37;;;;;;;18.82;74.45;92919.59;5069000;28;20232;-77
2023/06/19 00:57:43;;;;;;;12.67;11.87;;;;;;;18.70;74.00;92900.22;5069086;28;20189;-77
2023/06/19 01:00:11;;;;;;;12.33;11.43;;;;;;;18.94;74.13;92918.91;5069100;28;20308;-78
2023/06/19 01:02:37;;;;;;;12.47;11.63;;;;;;;18.94;74.22;92901.16;5069869;28;20212;-77
2023/06/19 01:05:03;;;;;;;11.67;10.87;;;;;;;18.98;74.47;92912.66;5101792;28;20217;-78
2023/06/19 01:08:07;;;;;;;12.23;11.40;;;;;;;18.73;74.84;92900.38;5069404;28;20216;-78
2023/06/19 01:10:38;;;;;;;11.53;10.73;;;;;;;18.67;75.42;92899.00;5061915;28;20217;-76
2023/06/19 01:13:11;;;;;;;12.87;11.73;;;;;;;18.74;75.93;92890.56;5069270;28;20277;-77
2023/06/19 01:15:40;;;;;;;11.60;10.80;;;;;;;18.79;75.80;92904.38;5068805;28;20217;-76
2023/06/19 01:18:06;;;;;;;11.77;10.90;;;;;;;18.70;77.16;92906.31;5101316;28;20178;-76
2023/06/19 01:20:33;;;;;;;11.90;11.10;;;;;;;17.90;79.98;92823.81;5068764;28;20236;-76
2023/06/19 01:23:06;;;;;;;12.73;11.83;;;;;;;18.26;82.10;92892.81;5069516;28;20192;-77
2023/06/19 01:25:31;;;;;;;12.60;11.40;;;;;;;18.24;82.72;92902.94;5068806;28;20237;-77
2023/06/19 01:27:57;;;;;;;14.23;12.17;;;;;;;18.02;82.74;92855.63;5069009;28;20193;-78
2023/06/19 01:30:23;;;;;;;13.50;12.53;;;;;;;18.18;84.19;92894.41;5069516;28;20229;-78
2023/06/19 01:33:03;;;;;;;13.30;12.23;;;;;;;18.09;84.73;92890.22;5069436;28;20206;-77
2023/06/19 01:35:32;;;;;;;12.87;11.77;;;;;;;17.94;85.63;92894.19;5067410;28;20222;-77
2023/06/19 01:37:59;;;;;;;12.87;12.03;;;;;;;17.26;87.87;92854.72;5068232;28;20201;-76
2023/06/19 01:40:27;;;;;;;13.97;12.53;;;;;;;17.81;87.23;92902.28;5068652;28;20217;-77
2023/06/19 01:42:54;;;;;;;13.50;12.47;;;;;;;17.54;87.60;92874.44;5069968;28;20193;-76
2023/06/19 01:45:19;;;;;;;14.27;12.80;;;;;;;17.66;87.83;92913.38;5072206;28;20244;-77
2023/06/19 01:47:45;;;;;;;14.43;12.80;;;;;;;17.43;88.24;92900.31;5073394;28;20182;-77
2023/06/19 01:50:11;;;;;;;14.73;13.47;;;;;;;17.36;88.56;92891.34;5071613;28;20214;-77
2023/06/19 01:52:38;;;;;;;13.40;12.20;;;;;;;17.25;89.38;92908.56;5072911;28;20218;-77
2023/06/19 01:55:04;;;;;;;14.23;12.73;;;;;;;17.05;89.81;92896.00;5071687;28;20236;-77
2023/06/19 01:57:30;;;;;;;12.83;11.83;;;;;;;17.07;89.63;92884.06;5072610;28;20185;-77
2023/06/19 01:59:55;;;;;;;12.57;11.63;;;;;;;16.76;89.63;92872.88;5072014;28;20256;-76
2023/06/19 02:02:20;;;;;;;15.33;13.87;;;;;;;16.72;91.59;92885.13;5071418;28;20182;-78
2023/06/19 02:04:46;;;;;;;14.70;13.60;;;;;;;16.84;91.28;92903.00;5071933;28;20236;-77
2023/06/19 02:07:11;;;;;;;13.87;12.73;;;;;;;17.11;90.68;92927.22;5072290;28;20193;-77
2023/06/19 02:09:37;;;;;;;13.40;12.40;;;;;;;16.95;90.56;92923.47;5069522;28;20324;-77
2023/06/19 02:12:03;;;;;;;13.73;12.73;;;;;;;16.98;90.13;92927.38;5079290;28;20200;-77
2023/06/19 02:14:28;;;;;;;13.13;12.03;;;;;;;16.82;90.54;92920.97;5071989;28;20232;-77
2023/06/19 02:16:54;;;;;;;13.00;12.07;;;;;;;16.76;89.58;92888.69;5072529;28;20181;-76
2023/06/19 02:19:19;;;;;;;12.73;11.63;;;;;;;16.89;89.91;92935.25;5071685;28;20240;-76
2023/06/19 02:21:45;;;;;;;13.30;12.07;;;;;;;16.95;90.27;92934.03;5072250;28;20189;-76
2023/06/19 02:24:10;;;;;;;13.80;12.43;;;;;;;17.03;90.31;92924.56;5103629;28;20182;-77
2023/06/19 02:26:36;;;;;;;13.47;12.37;;;;;;;16.89;87.76;92937.91;5072152;28;20182;-77
2023/06/19 02:29:01;;;;;;;13.77;12.77;;;;;;;16.77;88.54;92898.16;5071725;28;20245;-77
2023/06/19 02:31:27;;;;;;;13.47;12.40;;;;;;;16.71;87.17;92898.63;5071754;28;20212;-77
2023/06/19 02:33:52;;;;;;;12.73;11.50;;;;;;;16.66;87.88;92891.66;5071806;28;20213;-77
2023/06/19 02:36:19;;;;;;;13.73;12.73;;;;;;;16.84;87.13;92900.34;5071282;28;20225;-77
2023/06/19 02:38:46;;;;;;;14.43;13.17;;;;;;;16.90;88.39;92907.78;5071796;28;20260;-76
2023/06/19 02:41:12;;;;;;;14.30;12.87;;;;;;;17.00;87.19;92911.97;5104223;28;20267;-77
2023/06/19 02:43:38;;;;;;;14.20;13.00;;;;;;;16.90;87.10;92897.25;5071524;28;20197;-77
2023/06/19 02:46:03;;;;;;;13.43;12.20;;;;;;;16.92;87.97;92931.22;5113782;28;20227;-77
2023/06/19 02:48:28;;;;;;;13.30;12.13;;;;;;;16.97;87.49;92929.22;5072746;28;20193;-77
2023/06/19 02:50:54;;;;;;;14.17;12.87;;;;;;;16.93;86.68;92917.75;5071165;28;20213;-77
2023/06/19 02:53:19;;;;;;;14.13;12.83;;;;;;;16.71;87.66;92888.88;5071457;28;20234;-77
2023/06/19 02:55:44;;;;;;;14.20;12.87;;;;;;;16.73;88.15;92888.56;5070500;28;20284;-77
2023/06/19 02:58:10;;;;;;;13.60;12.53;;;;;;;16.79;88.44;92918.97;5071333;28;20265;-77
2023/06/19 03:00:35;;;;;;;13.00;11.90;;;;;;;16.69;88.37;92911.34;5070913;28;20771;-77
2023/06/19 03:03:01;;;;;;;13.70;12.60;;;;;;;16.88;87.24;92917.88;5069992;28;20190;-72
2023/06/19 03:05:29;;;;;;;16.33;12.80;;;;;;;17.20;86.57;92943.81;5071161;28;20229;-73
2023/06/19 03:07:54;;;;;;;12.97;11.80;;;;;;;17.37;86.12;92954.38;5071052;28;20186;-72
2023/06/19 03:10:20;;;;;;;13.53;12.33;;;;;;;17.36;85.56;92942.25;5075793;28;20280;-72
2023/06/19 03:12:45;;;;;;;12.47;11.33;;;;;;;17.42;85.10;92921.75;5071371;28;20205;-72
2023/06/19 03:15:11;;;;;;;12.97;11.93;;;;;;;17.31;85.31;92918.66;5069561;28;20225;-71
2023/06/19 03:17:36;;;;;;;12.90;11.60;;;;;;;17.66;84.39;92950.34;5070873;28;20216;-71
2023/06/19 03:20:02;;;;;;;12.40;11.57;;;;;;;17.75;84.49;92948.44;5070799;28;20260;-73
2023/06/19 03:22:27;;;;;;;13.23;12.40;;;;;;;17.73;83.63;92924.25;5070767;28;20174;-73
2023/06/19 03:24:52;;;;;;;12.40;11.30;;;;;;;18.01;83.26;92914.84;5070747;28;20783;-73
2023/06/19 03:27:18;;;;;;;13.60;12.47;;;;;;;18.53;82.45;92945.28;5070559;28;20177;-72
2023/06/19 03:29:43;;;;;;;13.63;12.30;;;;;;;18.48;82.31;92946.25;5070399;28;20231;-73
2023/06/19 03:32:09;;;;;;;13.33;12.23;;;;;;;18.63;81.89;92943.03;5070156;28;20202;-72
2023/06/19 03:34:34;;;;;;;12.43;11.33;;;;;;;18.68;81.78;92950.03;5070557;28;20223;-72
2023/06/19 03:37:00;;;;;;;14.20;12.87;;;;;;;18.63;81.49;92937.75;5070430;28;20205;-72
2023/06/19 03:39:25;;;;;;;12.60;11.27;;;;;;;18.75;81.37;92945.81;5070337;28;20236;-72
2023/06/19 03:41:51;;;;;;;13.23;12.20;;;;;;;18.86;81.30;92954.13;5070231;28;20268;-73
2023/06/19 03:44:16;;;;;;;13.30;11.90;;;;;;;18.37;80.43;92942.38;5070307;28;20186;-72
2023/06/19 03:46:42;;;;;;;14.40;12.50;;;;;;;18.72;79.92;92927.13;5064123;28;20853;-69
2023/06/19 03:49:09;;;;;;;13.80;12.70;;;;;;;18.98;78.71;92944.41;5065788;28;20224;-72
2023/06/19 03:51:35;;;;;;;11.93;11.10;;;;;;;19.37;76.99;92955.69;5059982;28;20169;-72
2023/06/19 03:54:00;;;;;;;12.80;11.90;;;;;;;19.44;75.06;92958.59;5055195;28;20281;-72
2023/06/19 03:56:25;;;;;;;12.13;11.23;;;;;;;18.92;74.92;92951.00;5069031;28;20184;-70
2023/06/19 03:58:51;;;;;;;12.70;11.53;;;;;;;19.31;75.63;92952.47;5068754;28;21249;-70
2023/06/19 04:01:16;;;;;;;12.87;11.87;;;;;;;19.38;74.72;92926.22;5056697;28;20246;-71
2023/06/19 04:03:41;;;;;;;12.03;11.13;;;;;;;19.81;74.12;92945.19;5059368;28;20190;-70
2023/06/19 04:06:07;;;;;;;13.33;12.17;;;;;;;19.70;73.77;92922.84;5054188;28;20334;-71
2023/06/19 04:08:33;;;;;;;12.03;11.23;;;;;;;19.76;69.68;92926.03;5062468;28;20210;-71
2023/06/19 04:10:58;;;;;;;12.83;11.93;;;;;;;20.31;71.71;92948.41;5049214;28;20981;-74
2023/06/19 04:13:25;;;;;;;10.60;9.77;;;;;;;20.65;68.09;92929.41;5051567;28;20200;-72
2023/06/19 04:15:51;;;;;;;10.83;10.20;;;;;;;21.08;67.75;92951.97;5066776;28;20223;-71
2023/06/19 04:18:16;;;;;;;10.63;9.93;;;;;;;20.92;68.42;92956.41;5056239;28;20177;-69
2023/06/19 04:20:42;;;;;;;10.93;10.07;;;;;;;21.19;65.24;92955.72;5060251;28;20342;-71
2023/06/19 04:23:07;;;;;;;11.60;10.70;;;;;;;21.05;67.84;92955.28;5063192;28;20207;-72
2023/06/19 04:25:33;;;;;;;12.23;11.43;;;;;;;21.00;69.27;92952.84;5061587;28;20238;-71
2023/06/19 04:27:58;;;;;;;10.77;10.03;;;;;;;20.84;69.03;92951.97;5058206;28;20192;-69
2023/06/19 04:30:23;;;;;;;10.60;10.00;;;;;;;21.36;64.82;92950.91;5064207;28;20220;-71
2023/06/19 04:32:49;;;;;;;11.47;10.47;;;;;;;21.42;64.45;92954.09;5058519;28;20226;-71
2023/06/19 04:35:14;;;;;;;11.57;10.50;;;;;;;23.12;59.89;92958.94;5059875;28;20236;-74
2023/06/19 04:37:40;;;;;;;10.65;9.98;;;;;;;23.42;55.72;92920.03;5061894;28;20207;-70
2023/06/19 04:40:07;;;;;;;11.18;10.40;;;;;;;23.10;58.14;92947.84;5067925;28;20212;-70
2023/06/19 04:42:33;;;;;;;10.60;9.63;;;;;;;22.62;59.16;92947.47;5061047;28;20228;-72
2023/06/19 04:44:59;;;;;;;11.32;10.55;;;;;;;21.88;62.28;92932.28;5058386;28;20236;-72
2023/06/19 04:47:24;;;;;;;11.32;10.43;;;;;;;21.45;61.99;92943.59;5067761;28;20204;-70
2023/06/19 04:49:50;;;;;;;12.18;11.38;;;;;;;21.45;63.23;92948.91;5062402;28;20233;-69
2023/06/19 04:52:15;;;;;;;11.60;10.07;;;;;;;21.61;61.20;92943.66;5057025;28;20209;-69
2023/06/19 04:54:41;;;;;;;11.33;10.57;;;;;;;21.21;63.19;92934.91;5067455;28;20233;-70
2023/06/19 04:57:07;;;;;;;11.13;10.25;;;;;;;21.25;63.72;92938.44;5063507;28;20179;-72
2023/06/19 04:59:33;;;;;;;11.27;10.35;;;;;;;21.39;64.14;92933.53;5094597;28;20381;-72
2023/06/19 05:01:59;;;;;;;10.87;10.07;;;;;;;21.17;62.81;92948.09;5082194;28;20181;-72
2023/06/19 05:04:24;;;;;;;12.07;11.23;;;;;;;21.53;63.09;92936.59;5049903;28;20280;-71
2023/06/19 05:06:50;;;;;;;10.77;10.07;;;;;;;22.13;60.54;92947.00;5049682;28;20178;-72
2023/06/19 05:09:16;;;;;;;11.50;10.70;;;;;;;22.99;56.73;92952.16;5057861;28;20192;-70
2023/06/19 05:11:41;;;;;;;12.20;11.20;;;;;;;23.68;54.13;92944.19;5054655;28;20188;-71
2023/06/19 05:14:07;;;;;;;11.43;10.55;;;;;;;23.11;55.94;92949.41;5060918;28;20203;-71
2023/06/19 05:16:34;;;;;;;10.57;9.98;;;;;;;24.49;52.08;92955.63;5049238;28;20192;-71
2023/06/19 05:18:59;;;;;;;10.82;9.88;;;;;;;26.42;48.38;92961.78;5062531;28;20195;-71
2023/06/19 05:21:25;;;;;;;10.80;9.90;;;;;;;27.10;45.60;92960.50;5060911;28;20212;-71
2023/06/19 05:23:52;;;;;;;10.30;9.60;;;;;;;26.66;46.78;92955.91;5063855;28;20196;-68
2023/06/19 05:26:21;;;;;;;9.77;8.95;;;;;;;25.28;50.60;92957.28;5072574;28;20247;-72
2023/06/19 05:28:47;;;;;;;10.02;9.38;;;;;;;24.02;53.81;92965.78;5073073;28;20184;-70
2023/06/19 05:31:12;;;;;;;10.77;9.98;;;;;;;23.77;54.47;92964.53;5072608;28;20224;-70
2023/06/19 05:33:38;;;;;;;11.25;10.32;;;;;;;23.66;54.68;92965.09;5072802;28;20203;-71
2023/06/19 05:36:04;;;;;;;10.50;9.60;;;;;;;23.92;54.99;92966.34;5072737;28;20228;-69
2023/06/19 05:38:30;;;;;;;10.43;9.73;;;;;;;26.83;47.42;92985.91;5072903;28;20219;-68
2023/06/19 05:40:56;;;;;;;9.98;9.18;;;;;;;29.58;40.61;93002.78;5071441;28;20248;-70
2023/06/19 05:43:22;;;;;;;9.85;9.15;;;;;;;30.53;37.87;92995.22;5072754;28;20178;-81
2023/06/19 05:45:47;;;;;;;11.48;10.45;;;;;;;31.36;35.10;93003.22;5071500;28;20225;-74
2023/06/19 05:48:13;;;;;;;9.38;8.68;;;;;;;32.30;32.98;92979.88;5071859;28;20181;-78
2023/06/19 05:50:38;;;;;;;9.50;8.80;;;;;;;33.14;32.43;93007.75;5071085;28;20286;-77
2023/06/19 05:53:05;;;;;;;9.73;9.13;;;;;;;34.11;30.18;92991.06;5071928;28;20211;-77
2023/06/19 05:55:30;;;;;;;9.00;8.40;;;;;;;35.15;28.87;93013.72;5071714;28;20213;-77
2023/06/19 05:57:55;;;;;;;8.55;8.05;;;;;;;33.84;30.14;93000.44;5072541;28;20174;-77
2023/06/19 06:00:22;;;;;;;9.50;8.88;;;;;;;33.43;30.35;92970.97;5071672;28;20225;-77
2023/06/19 06:02:47;;;;;;;8.55;8.05;;;;;;;34.70;29.80;92999.19;5066927;28;20243;-77
2023/06/19 06:05:13;;;;;;;9.10;8.50;;;;;;;31.47;32.22;92985.00;5070961;28;20288;-76
2023/06/19 06:07:38;;;;;;;8.63;8.02;;;;;;;32.98;30.58;93007.63;5071360;28;20177;-77
2023/06/19 06:10:05;;;;;;;9.20;8.60;;;;;;;32.09;31.75;92979.34;5070853;28;20240;-77
2023/06/19 06:12:30;;;;;;;9.10;8.48;;;;;;;32.65;31.52;92998.38;5071111;28;20231;-77
2023/06/19 06:14:55;;;;;;;8.82;8.23;;;;;;;33.05;31.41;93007.50;5070959;28;20205;-77
2023/06/19 06:17:21;;;;;;;8.63;8.02;;;;;;;31.44;33.45;92987.72;5074352;28;20188;-76
2023/06/19 06:19:46;;;;;;;9.18;8.40;;;;;;;33.89;30.21;92983.72;5072951;28;20232;-77
2023/06/19 06:22:11;;;;;;;14.68;8.85;;;;;;;35.22;28.07;93019.00;5071343;28;20169;-75
2023/06/19 06:24:37;;;;;;;9.07;8.30;;;;;;;33.23;30.22;92985.59;5063937;28;20906;-77
2023/06/19 06:27:05;;;;;;;8.65;8.05;;;;;;;32.07;32.09;93014.88;5072509;28;20213;-77
2023/06/19 06:29:30;;;;;;;8.77;8.18;;;;;;;33.26;30.21;93020.72;5070440;28;20221;-77
2023/06/19 06:32:05;;;;;;;9.27;8.38;;;;;;;33.32;29.40;93007.47;5072006;28;20192;-76
2023/06/19 06:34:30;;;;;;;9.10;8.40;;;;;;;34.77;29.29;93006.41;5070305;28;20235;-76
2023/06/19 06:36:55;;;;;;;9.05;8.32;;;;;;;35.94;27.47;93016.13;5070856;28;20253;-76
2023/06/19 06:39:21;;;;;;;8.05;7.53;;;;;;;36.15;27.65;93027.22;5070497;28;20217;-75
2023/06/19 06:41:46;;;;;;;7.93;7.43;;;;;;;34.18;29.04;93023.44;5070577;28;20185;-75
2023/06/19 06:44:11;;;;;;;8.73;8.13;;;;;;;34.64;29.72;93028.00;5071221;28;20247;-75
2023/06/19 06:46:37;;;;;;;8.30;7.80;;;;;;;35.67;27.06;93021.06;5071631;28;20280;-75
2023/06/19 06:49:02;;;;;;;9.18;8.50;;;;;;;34.79;28.71;93029.22;5071657;28;20185;-76
2023/06/19 06:51:27;;;;;;;8.82;7.95;;;;;;;32.34;30.97;93007.63;5071408;28;20188;-75
2023/06/19 06:53:53;;;;;;;9.43;8.73;;;;;;;29.53;36.03;93014.72;5071417;28;20209;-75
2023/06/19 06:56:18;;;;;;;9.38;8.57;;;;;;;26.67;42.96;93004.91;5070870;28;20205;-75
2023/06/19 06:58:46;;;;;;;9.88;8.98;;;;;;;25.56;46.96;92973.72;5071730;28;20195;-75
2023/06/19 07:01:12;;;;;;;9.50;8.88;;;;;;;25.43;47.81;92956.38;5070592;28;20255;-75
2023/06/19 07:03:37;;;;;;;10.18;9.30;;;;;;;25.09;50.18;92979.53;5071389;28;20194;-75
2023/06/19 07:06:03;;;;;;;11.05;10.25;;;;;;;24.66;51.24;92984.53;5070524;28;20221;-75
2023/06/19 07:08:28;;;;;;;10.77;9.88;;;;;;;24.68;50.74;92991.09;5071635;28;20227;-75
2023/06/19 07:10:53;;;;;;;10.43;9.73;;;;;;;24.40;51.32;92992.44;5077232;28;20939;-74
2023/06/19 07:13:19;;;;;;;10.93;10.15;;;;;;;24.09;51.37;92971.28;5071034;28;20268;-75
2023/06/19 07:15:44;;;;;;;11.20;10.43;;;;;;;24.68;50.69;92991.09;5070365;28;20293;-74
2023/06/19 07:18:10;;;;;;;11.40;9.75;;;;;;;24.68;50.47;92975.06;5071201;28;20177;-75
2023/06/19 07:20:35;;;;;;;11.25;10.30;;;;;;;24.48;52.82;92992.22;5070356;28;20227;-75
2023/06/19 07:23:01;;;;;;;10.77;10.05;;;;;;;24.53;52.27;92991.91;5070893;28;20197;-75
2023/06/19 07:25:27;;;;;;;10.63;10.02;;;;;;;24.26;51.43;92986.84;5070243;28;20231;-75
2023/06/19 07:27:52;;;;;;;11.07;10.38;;;;;;;24.12;51.29;92978.59;5071139;28;20184;-74
2023/06/19 07:30:18;;;;;;;10.57;9.77;;;;;;;24.22;53.17;92978.03;5070274;28;20236;-74
2023/06/19 07:32:43;;;;;;;10.52;9.93;;;;;;;24.43;53.11;93000.53;5070759;28;20262;-74
2023/06/19 07:35:09;;;;;;;12.00;11.10;;;;;;;24.49;51.31;93006.34;5070082;28;20271;-75
2023/06/19 07:37:34;;;;;;;10.73;10.02;;;;;;;24.88;49.74;93003.25;5070744;28;20168;-75
2023/06/19 07:39:59;;;;;;;12.07;11.13;;;;;;;24.21;50.65;92993.25;5070208;28;20216;-75
2023/06/19 07:42:26;;;;;;;10.27;9.57;;;;;;;23.95;52.65;92989.66;5070409;28;20207;-76
2023/06/19 07:44:51;;;;;;;12.20;11.30;;;;;;;24.13;51.14;93010.25;5070043;28;20259;-75
2023/06/19 07:47:18;;;;;;;11.82;10.68;;;;;;;23.91;55.78;93002.91;5070677;28;20190;-74
2023/06/19 07:49:45;;;;;;;10.68;9.88;;;;;;;24.15;53.63;93005.34;5069233;28;20227;-75
2023/06/19 07:52:10;;;;;;;11.45;10.55;;;;;;;23.93;54.04;93010.56;5070434;28;20192;-75
2023/06/19 07:54:36;;;;;;;11.10;9.98;;;;;;;23.92;54.59;92985.81;5069540;28;20232;-75
2023/06/19 07:57:02;;;;;;;10.45;9.55;;;;;;;24.09;54.52;93013.97;5070520;28;20202;-75
2023/06/19 07:59:27;;;;;;;11.70;10.45;;;;;;;24.16;55.47;93004.19;5069765;28;20229;-74
2023/06/19 08:01:52;;;;;;;11.02;10.35;;;;;;;23.75;55.35;92989.63;5062838;28;20189;-76
2023/06/19 08:04:18;;;;;;;11.50;10.15;;;;;;;23.65;56.39;93000.09;5067414;28;20188;-75
2023/06/19 08:06:43;;;;;;;11.40;10.63;;;;;;;23.47;55.71;92998.97;5070353;28;20203;-75
2023/06/19 08:09:09;;;;;;;11.35;10.48;;;;;;;23.77;53.84;92998.06;5069295;28;20218;-75
2023/06/19 08:11:35;;;;;;;10.68;9.88;;;;;;;23.90;50.99;93001.38;5072505;28;20210;-76
2023/06/19 08:14:00;;;;;;;11.35;10.45;;;;;;;24.18;53.15;93003.84;5069517;28;20214;-75
2023/06/19 08:16:26;;;;;;;61.13;21.92;;;;;;;24.06;53.95;92999.44;5069858;28;20184;-75
2023/06/19 08:18:52;;;;;;;34.25;16.92;;;;;;;23.95;54.16;92981.66;5070086;28;20777;-75
2023/06/19 08:21:17;;;;;;;9.95;9.25;;;;;;;24.27;47.92;92985.72;5069460;28;20215;-75
2023/06/19 08:23:43;;;;;;;10.65;9.77;;;;;;;24.23;50.65;92992.91;5069881;28;20200;-74
2023/06/19 08:26:09;;;;;;;10.63;9.93;;;;;;;24.19;47.67;92984.81;5069360;28;20230;-75
2023/06/19 08:28:35;;;;;;;10.48;9.77;;;;;;;24.20;48.75;92993.59;5101420;28;20192;-75
2023/06/19 08:31:00;;;;;;;16.35;11.82;;;;;;;24.14;49.28;93003.03;5069320;28;20219;-75
2023/06/19 08:33:26;;;;;;;23.95;11.20;;;;;;;24.27;51.66;93007.84;5069613;28;20216;-76
2023/06/19 08:35:52;;;;;;;10.48;9.77;;;;;;;24.22;48.58;92981.44;5102089;28;20220;-75
2023/06/19 08:38:18;;;;;;;11.90;10.70;;;;;;;24.39;50.02;93004.25;5069715;28;20207;-75
2023/06/19 08:40:44;;;;;;;10.32;9.63;;;;;;;23.78;45.74;92986.28;5069481;28;20223;-75
2023/06/19 08:43:10;;;;;;;11.30;10.50;;;;;;;24.25;49.17;93007.41;5069472;28;20184;-75
2023/06/19 08:45:35;;;;;;;9.75;9.05;;;;;;;24.44;46.50;93006.63;5069347;28;20220;-75
2023/06/19 08:48:03;;;;;;;11.32;10.52;;;;;;;24.57;42.32;93005.34;5069900;28;20179;-75
2023/06/19 08:50:32;;;;;;;9.98;9.35;;;;;;;24.64;42.91;93000.13;5069295;28;20240;-75
2023/06/19 08:52:57;;;;;;;10.93;10.02;;;;;;;24.57;45.56;93008.78;5070864;28;20210;-75
2023/06/19 08:55:24;;;;;;;10.20;9.60;;;;;;;24.59;43.62;93001.19;5073343;28;20258;-76
2023/06/19 08:57:51;;;;;;;10.38;9.57;;;;;;;24.54;42.43;92987.38;5073624;28;20184;-75
2023/06/19 09:00:25;;;;;;;12.35;10.20;;;;;;;24.77;42.48;93004.19;5073357;28;20211;-75
2023/06/19 09:02:50;;;;;;;10.48;9.40;;;;;;;24.51;44.47;93012.88;5074450;28;20176;-74
2023/06/19 09:05:17;;;;;;;10.38;9.70;;;;;;;24.37;41.15;93012.63;5072829;28;20328;-76
2023/06/19 09:07:44;;;;;;;10.07;9.48;;;;;;;24.43;41.52;93013.09;5073535;28;20214;-75
2023/06/19 09:10:18;;;;;;;11.77;10.77;;;;;;;24.05;41.06;92989.13;5076819;28;20215;-75
2023/06/19 09:13:04;;;;;;;9.02;8.43;;;;;;;24.53;41.34;93009.84;5074767;28;20215;-74
2023/06/19 09:15:31;;;;;;;10.13;9.32;;;;;;;24.56;45.26;92980.53;5072296;28;20294;-75
2023/06/19 09:18:08;;;;;;;10.20;9.30;;;;;;;24.72;42.22;92991.13;5074015;28;20219;-75
2023/06/19 09:20:38;;;;;;;9.93;8.95;;;;;;;24.59;41.61;93005.75;5072634;28;20222;-75
2023/06/19 09:23:04;;;;;;;18.25;11.13;;;;;;;24.42;42.42;92968.84;5071504;28;20184;-75
2023/06/19 09:25:30;;;;;;;11.05;10.13;;;;;;;24.68;42.41;93001.00;5071477;28;20216;-75
2023/06/19 09:27:55;;;;;;;9.70;9.00;;;;;;;24.76;43.30;93006.09;5072596;28;20204;-75
2023/06/19 09:30:21;;;;;;;9.55;8.95;;;;;;;24.21;41.20;93000.47;5072298;28;20215;-74
2023/06/19 09:32:46;;;;;;;11.77;9.95;;;;;;;24.86;41.52;92996.69;5072913;28;20214;-75
2023/06/19 09:35:12;;;;;;;10.10;9.25;;;;;;;24.15;38.54;93008.00;5072355;28;20223;-75
2023/06/19 09:37:40;;;;;;;8.45;7.88;;;;;;;24.22;40.02;93002.03;5072854;28;20184;-74
2023/06/19 09:40:10;;;;;;;10.25;9.35;;;;;;;24.82;40.92;93007.34;5072782;28;20243;-75
2023/06/19 09:42:38;;;;;;;9.90;9.30;;;;;;;24.36;39.35;92962.25;5072952;28;20646;-75
2023/06/19 09:45:09;;;;;;;9.77;8.98;;;;;;;24.97;39.81;92970.94;5072228;28;20237;-75
2023/06/19 09:47:45;;;;;;;10.45;9.10;;;;;;;25.06;39.19;93009.63;5072945;28;20191;-75
2023/06/19 09:50:13;;;;;;;11.00;9.18;;;;;;;24.65;39.06;93005.13;5072243;28;20222;-75
2023/06/19 09:52:42;;;;;;;10.32;8.98;;;;;;;24.65;40.21;92996.34;5072778;28;20229;-76
2023/06/19 09:55:09;;;;;;;10.45;9.48;;;;;;;24.97;40.76;93005.66;5072052;28;20226;-74
2023/06/19 09:57:35;;;;;;;10.25;9.57;;;;;;;24.59;38.44;93009.19;5072543;28;20188;-75
2023/06/19 10:00:12;;;;;;;9.35;8.68;;;;;;;24.51;39.84;92978.19;5072382;28;20217;-74
2023/06/19 10:02:40;;;;;;;9.35;8.75;;;;;;;25.18;40.92;93000.66;5072365;28;20191;-76
2023/06/19 10:05:08;;;;;;;10.30;9.60;;;;;;;25.02;41.70;92984.00;5104864;28;20212;-74
2023/06/19 10:07:35;;;;;;;10.65;10.02;;;;;;;25.15;43.24;92982.69;5072149;28;20249;-76
2023/06/19 10:10:06;;;;;;;10.48;9.57;;;;;;;25.08;44.32;92993.25;5074837;28;20235;-75
2023/06/19 10:12:39;;;;;;;10.38;9.48;;;;;;;24.88;41.99;92994.44;5075216;28;20266;-76
2023/06/19 10:15:08;;;;;;;11.02;10.13;;;;;;;25.23;43.68;92989.69;5072033;28;20227;-74
2023/06/19 10:17:34;;;;;;;18.33;11.13;;;;;;;25.15;43.47;92980.00;5072271;28;20193;-74
2023/06/19 10:19:59;;;;;;;9.85;9.25;;;;;;;25.08;44.28;92972.66;5072211;28;20239;-75
2023/06/19 10:22:30;;;;;;;9.60;8.90;;;;;;;24.21;45.11;92920.41;5071933;28;20316;-75
2023/06/19 10:24:55;;;;;;;9.20;8.60;;;;;;;24.25;44.83;92967.38;5071842;28;20223;-75
2023/06/19 10:27:22;;;;;;;11.10;10.18;;;;;;;24.57;43.21;92960.72;5071889;28;20185;-75
2023/06/19 10:29:53;;;;;;;17.63;11.15;;;;;;;24.88;39.70;92979.22;5072375;28;20255;-76
2023/06/19 10:32:19;;;;;;;10.43;9.63;;;;;;;24.77;40.90;92964.91;5071852;28;20203;-75
2023/06/19 10:34:51;;;;;;;10.55;9.60;;;;;;;24.82;40.37;92953.16;5071691;28;20242;-75
2023/06/19 10:37:16;;;;;;;10.63;9.82;;;;;;;25.22;42.88;92970.19;5103978;28;20180;-75
2023/06/19 10:39:43;;;;;;;13.13;11.70;;;;;;;25.30;40.33;92976.41;5071494;28;20239;-75
2023/06/19 10:42:10;;;;;;;10.43;9.50;;;;;;;25.40;41.44;92977.72;5071668;28;20188;-74
2023/06/19 10:44:37;;;;;;;9.55;8.85;;;;;;;25.40;40.10;92978.50;5071492;28;20232;-76
2023/06/19 10:47:04;;;;;;;10.35;9.35;;;;;;;25.34;37.12;92979.91;5071105;28;20205;-75
2023/06/19 10:49:29;;;;;;;12.05;9.80;;;;;;;24.91;39.39;92975.03;5071797;28;20235;-75
2023/06/19 10:51:58;;;;;;;9.50;8.90;;;;;;;25.07;38.73;92955.06;5071699;28;20189;-75
2023/06/19 10:54:24;;;;;;;9.40;8.73;;;;;;;24.92;37.58;92961.31;5070774;28;20313;-75
2023/06/19 10:56:50;;;;;;;8.90;8.35;;;;;;;;;;5071717;28;20185;-75
2023/06/19 10:59:16;;;;;;;10.38;9.70;;;;;;;25.03;38.00;92966.81;5070593;28;20252;-75
2023/06/19 11:01:45;;;;;;;10.13;9.45;;;;;;;24.80;39.44;92955.41;5071341;28;20180;-75
2023/06/19 11:04:12;;;;;;;10.70;9.88;;;;;;;25.29;41.67;92970.28;5103479;28;20204;-75
2023/06/19 11:06:39;;;;;;;9.75;9.15;;;;;;;25.21;40.82;92949.91;5071523;28;20224;-75
2023/06/19 11:09:10;;;;;;;10.70;9.65;;;;;;;25.46;40.44;92953.00;5070569;28;20199;-75
2023/06/19 11:11:48;;;;;;;16.05;10.20;;;;;;;25.67;40.87;92963.94;5071558;28;20253;-75
2023/06/19 11:14:17;;;;;;;11.18;10.02;;;;;;;25.56;40.60;92951.59;5070108;28;20263;-76
2023/06/19 11:16:46;;;;;;;10.02;9.05;;;;;;;25.94;42.16;92967.34;5070809;28;20191;-75
2023/06/19 11:19:17;;;;;;;13.05;9.85;;;;;;;25.92;40.71;92957.00;5070760;28;20181;-75